sensor_id;sensor_type;location;lat;lon;timestamp;pressure;altitude;pressure_sealevel;temperature;humidity
50057;BME280;36875;49.468;11.200;2023-06-26T00:01:50;97960.00;;;22.86;47.56
50057;BME280;36875;49.468;11.200;2023-06-26T00:04:15;97956.47;;;22.86;47.62
50057;BME280;36875;49.468;11.200;2023-06-26T00:06:41;97961.16;;;22.85;47.17
50057;BME280;36875;49.468;11.200;2023-06-26T00:09:08;97957.28;;;22.86;47.51
50057;BME280;36875;49.468;11.200;2023-06-26T00:11:34;97949.72;;;22.83;47.34
50057;BME280;36875;49.468;11.200;2023-06-26T00:13:59;97948.09;;;22.82;47.23
50057;BME280;36875;49.468;11.200;2023-06-26T00:16:25;97952.47;;;22.83;47.40
50057;BME280;36875;49.468;11.200;2023-06-26T00:18:51;97945.34;;;22.82;47.36
50057;BME280;36875;49.468;11.200;2023-06-26T00:21:16;97948.09;;;22.82;47.30
50057;BME280;36875;49.468;11.200;2023-06-26T00:23:42;97955.53;;;22.82;47.45
50057;BME280;36875;49.468;11.200;2023-06-26T00:26:09;97949.25;;;22.81;47.23
50057;BME280;36875;49.468;11.200;2023-06-26T00:28:35;97949.25;;;22.81;47.14
50057;BME280;36875;49.468;11.200;2023-06-26T00:31:01;97950.38;;;22.80;47.07
50057;BME280;36875;49.468;11.200;2023-06-26T00:33:26;97952.31;;;22.80;47.33
50057;BME280;36875;49.468;11.200;2023-06-26T00:35:51;97954.25;;;22.79;47.15
50057;BME280;36875;49.468;11.200;2023-06-26T00:38:17;97950.69;;;22.79;47.22
50057;BME280;36875;49.468;11.200;2023-06-26T00:40:43;97954.25;;;22.79;47.20
50057;BME280;36875;49.468;11.200;2023-06-26T00:43:10;97951.38;;;22.76;47.15
50057;BME280;36875;49.468;11.200;2023-06-26T00:45:35;97955.72;;;22.77;47.22
50057;BME280;36875;49.468;11.200;2023-06-26T00:48:01;97953.75;;;22.77;46.91
50057;BME280;36875;49.468;11.200;2023-06-26T00:50:27;97956.50;;;22.77;47.26
50057;BME280;36875;49.468;11.200;2023-06-26T00:52:53;97949.44;;;22.76;47.00
50057;BME280;36875;49.468;11.200;2023-06-26T00:55:19;97950.22;;;22.77;47.30
50057;BME280;36875;49.468;11.200;2023-06-26T00:57:45;97950.53;;;22.75;47.20
50057;BME280;36875;49.468;11.200;2023-06-26T01:00:14;97945.41;;;22.74;46.93
50057;BME280;36875;49.468;11.200;2023-06-26T01:02:39;97942.66;;;22.74;46.99
50057;BME280;36875;49.468;11.200;2023-06-26T01:05:06;97941.84;;;22.73;47.13
50057;BME280;36875;49.468;11.200;2023-06-26T01:07:32;97941.84;;;22.73;46.93
50057;BME280;36875;49.468;11.200;2023-06-26T01:10:01;97936.53;;;22.68;46.94
50057;BME280;36875;49.468;11.200;2023-06-26T01:12:27;97937.81;;;22.70;46.95
50057;BME280;36875;49.468;11.200;2023-06-26T01:14:53;97941.38;;;22.71;46.74
50057;BME280;36875;49.468;11.200;2023-06-26T01:17:20;97938.63;;;22.71;46.96
50057;BME280;36875;49.468;11.200;2023-06-26T01:19:46;97938.16;;;22.69;46.79
50057;BME280;36875;49.468;11.200;2023-06-26T01:22:20;97941.22;;;22.67;46.73
50057;BME280;36875;49.468;11.200;2023-06-26T01:25:01;97939.28;;;22.68;46.80
50057;BME280;36875;49.468;11.200;2023-06-26T01:27:30;97939.28;;;22.68;46.80
50057;BME280;36875;49.468;11.200;2023-06-26T01:29:59;97930.25;;;22.67;46.70
50057;BME280;36875;49.468;11.200;2023-06-26T01:32:26;97933.00;;;22.67;46.59
50057;BME280;36875;49.468;11.200;2023-06-26T01:34:52;97942.38;;;22.66;46.80
50057;BME280;36875;49.468;11.200;2023-06-26T01:37:17;97944.28;;;22.66;46.89
50057;BME280;36875;49.468;11.200;2023-06-26T01:39:43;97941.53;;;22.66;46.87
50057;BME280;36875;49.468;11.200;2023-06-26T01:42:08;97933.63;;;22.64;46.74
50057;BME280;36875;49.468;11.200;2023-06-26T01:44:43;97935.59;;;22.64;46.73
50057;BME280;36875;49.468;11.200;2023-06-26T01:47:12;97925.75;;;22.63;46.49
50057;BME280;36875;49.468;11.200;2023-06-26T01:49:47;97927.34;;;22.64;46.55
50057;BME280;36875;49.468;11.200;2023-06-26T01:52:19;97931.25;;;22.63;46.57
50057;BME280;36875;49.468;11.200;2023-06-26T01:55:03;97925.75;;;22.63;46.52
50057;BME280;36875;49.468;11.200;2023-06-26T01:57:31;97925.75;;;22.63;46.68
50057;BME280;36875;49.468;11.200;2023-06-26T01:59:59;97928.03;;;22.61;46.52
50057;BME280;36875;49.468;11.200;2023-06-26T02:02:25;97928.03;;;22.61;46.60
50057;BME280;36875;49.468;11.200;2023-06-26T02:04:51;97931.91;;;22.60;46.46
50057;BME280;36875;49.468;11.200;2023-06-26T02:07:16;97931.09;;;22.59;46.52
50057;BME280;36875;49.468;11.200;2023-06-26T02:09:42;97927.53;;;22.59;46.48
50057;BME280;36875;49.468;11.200;2023-06-26T02:12:08;97924.78;;;22.59;46.30
50057;BME280;36875;49.468;11.200;2023-06-26T02:14:33;97924.00;;;22.58;46.48
50057;BME280;36875;49.468;11.200;2023-06-26T02:17:00;97916.09;;;22.57;46.29
50057;BME280;36875;49.468;11.200;2023-06-26T02:19:26;97924.31;;;22.57;46.23
50057;BME280;36875;49.468;11.200;2023-06-26T02:21:52;97925.47;;;22.56;46.30
50057;BME280;36875;49.468;11.200;2023-06-26T02:24:18;97926.56;;;22.55;46.49
50057;BME280;36875;49.468;11.200;2023-06-26T02:26:43;97928.53;;;22.54;46.03
50057;BME280;36875;49.468;11.200;2023-06-26T02:29:09;97930.47;;;22.54;46.28
50057;BME280;36875;49.468;11.200;2023-06-26T02:31:34;97926.91;;;22.53;45.97
50057;BME280;36875;49.468;11.200;2023-06-26T02:34:01;97925.00;;;22.54;46.10
50057;BME280;36875;49.468;11.200;2023-06-26T02:36:27;97931.59;;;22.52;46.20
50057;BME280;36875;49.468;11.200;2023-06-26T02:38:52;97938.19;;;22.51;46.13
50057;BME280;36875;49.468;11.200;2023-06-26T02:41:18;97933.84;;;22.50;46.17
50057;BME280;36875;49.468;11.200;2023-06-26T02:43:43;97932.72;;;22.51;45.97
50057;BME280;36875;49.468;11.200;2023-06-26T02:46:09;97933.84;;;22.50;45.98
50057;BME280;36875;49.468;11.200;2023-06-26T02:48:34;97928.69;;;22.49;46.02
50057;BME280;36875;49.468;11.200;2023-06-26T02:51:01;97925.16;;;22.48;45.64
50057;BME280;36875;49.468;11.200;2023-06-26T02:53:26;97929.03;;;22.47;46.10
50057;BME280;36875;49.468;11.200;2023-06-26T02:55:52;97929.84;;;22.48;45.97
50057;BME280;36875;49.468;11.200;2023-06-26T02:58:17;97932.09;;;22.46;46.00
50057;BME280;36875;49.468;11.200;2023-06-26T03:00:43;97923.38;;;22.44;46.05
50057;BME280;36875;49.468;11.200;2023-06-26T03:03:08;97932.91;;;22.46;45.95
50057;BME280;36875;49.468;11.200;2023-06-26T03:05:34;97934.03;;;22.45;45.83
50057;BME280;36875;49.468;11.200;2023-06-26T03:08:01;97926.94;;;22.44;45.87
50057;BME280;36875;49.468;11.200;2023-06-26T03:10:27;97927.75;;;22.45;45.83
50057;BME280;36875;49.468;11.200;2023-06-26T03:12:52;97919.03;;;22.43;45.83
50057;BME280;36875;49.468;11.200;2023-06-26T03:15:18;97915.47;;;22.42;45.76
50057;BME280;36875;49.468;11.200;2023-06-26T03:17:44;97913.09;;;22.41;45.89
50057;BME280;36875;49.468;11.200;2023-06-26T03:20:10;97912.63;;;22.39;45.92
50057;BME280;36875;49.468;11.200;2023-06-26T03:22:36;97913.88;;;22.41;45.88
50057;BME280;36875;49.468;11.200;2023-06-26T03:25:03;97913.88;;;22.41;45.86
50057;BME280;36875;49.468;11.200;2023-06-26T03:27:30;97920.84;;;22.39;45.80
50057;BME280;36875;49.468;11.200;2023-06-26T03:29:55;97924.38;;;22.39;45.87
50057;BME280;36875;49.468;11.200;2023-06-26T03:32:20;97920.00;;;22.38;45.74
50057;BME280;36875;49.468;11.200;2023-06-26T03:34:46;97913.72;;;22.38;45.76
50057;BME280;36875;49.468;11.200;2023-06-26T03:37:11;97921.16;;;22.37;45.76
50057;BME280;36875;49.468;11.200;2023-06-26T03:39:37;97918.41;;;22.37;45.75
50057;BME280;36875;49.468;11.200;2023-06-26T03:42:05;97913.25;;;22.36;45.75
50057;BME280;36875;49.468;11.200;2023-06-26T03:44:31;97916.00;;;22.36;45.65
50057;BME280;36875;49.468;11.200;2023-06-26T03:46:56;97911.97;;;22.33;45.76
50057;BME280;36875;49.468;11.200;2023-06-26T03:49:22;97917.59;;;22.37;45.76
50057;BME280;36875;49.468;11.200;2023-06-26T03:51:47;97921.47;;;22.36;45.73
50057;BME280;36875;49.468;11.200;2023-06-26T03:54:13;97921.47;;;22.36;45.75
50057;BME280;36875;49.468;11.200;2023-06-26T03:56:39;97915.19;;;22.35;45.73
50057;BME280;36875;49.468;11.200;2023-06-26T03:59:05;97914.38;;;22.35;45.56
50057;BME280;36875;49.468;11.200;2023-06-26T04:01:31;97919.06;;;22.34;45.83
50057;BME280;36875;49.468;11.200;2023-06-26T04:03:57;97916.31;;;22.34;45.88
50057;BME280;36875;49.468;11.200;2023-06-26T04:06:22;97911.97;;;22.33;45.66
50057;BME280;36875;49.468;11.200;2023-06-26T04:08:48;97914.38;;;22.35;45.94
50057;BME280;36875;49.468;11.200;2023-06-26T04:11:13;97919.84;;;22.35;45.86
50057;BME280;36875;49.468;11.200;2023-06-26T04:13:39;97918.41;;;22.37;45.71
50057;BME280;36875;49.468;11.200;2023-06-26T04:16:06;97920.50;;;22.40;45.70
50057;BME280;36875;49.468;11.200;2023-06-26T04:18:32;97921.63;;;22.39;45.73
50057;BME280;36875;49.468;11.200;2023-06-26T04:21:05;97918.09;;;22.39;45.95
50057;BME280;36875;49.468;11.200;2023-06-26T04:23:33;97914.22;;;22.40;45.84
50057;BME280;36875;49.468;11.200;2023-06-26T04:25:59;97917.75;;;22.40;46.01
50057;BME280;36875;49.468;11.200;2023-06-26T04:28:25;97916.16;;;22.39;45.96
50057;BME280;36875;49.468;11.200;2023-06-26T04:30:50;97917.75;;;22.40;45.89
50057;BME280;36875;49.468;11.200;2023-06-26T04:33:17;97915.00;;;22.40;46.09
50057;BME280;36875;49.468;11.200;2023-06-26T04:35:42;97918.09;;;22.39;45.98
50057;BME280;36875;49.468;11.200;2023-06-26T04:38:14;97916.16;;;22.39;46.10
50057;BME280;36875;49.468;11.200;2023-06-26T04:40:39;97913.41;;;22.39;46.09
50057;BME280;36875;49.468;11.200;2023-06-26T04:43:05;97914.53;;;22.38;46.19
50057;BME280;36875;49.468;11.200;2023-06-26T04:45:30;97914.53;;;22.38;46.35
50057;BME280;36875;49.468;11.200;2023-06-26T04:47:56;97914.53;;;22.38;45.90
50057;BME280;36875;49.468;11.200;2023-06-26T04:50:23;97920.84;;;22.39;46.25
50057;BME280;36875;49.468;11.200;2023-06-26T04:52:48;97919.22;;;22.38;46.62
50057;BME280;36875;49.468;11.200;2023-06-26T04:55:14;97916.78;;;22.36;46.55
50057;BME280;36875;49.468;11.200;2023-06-26T04:57:39;97916.47;;;22.38;46.54
50057;BME280;36875;49.468;11.200;2023-06-26T05:00:06;97914.22;;;22.40;46.69
50057;BME280;36875;49.468;11.200;2023-06-26T05:02:36;97911.63;;;22.43;46.55
50057;BME280;36875;49.468;11.200;2023-06-26T05:05:01;97908.69;;;22.48;46.46
50057;BME280;36875;49.468;11.200;2023-06-26T05:07:28;97915.59;;;22.55;46.31
50057;BME280;36875;49.468;11.200;2023-06-26T05:09:53;97906.72;;;22.58;46.40
50057;BME280;36875;49.468;11.200;2023-06-26T05:12:19;97913.16;;;22.62;46.39
50057;BME280;36875;49.468;11.200;2023-06-26T05:14:44;97914.44;;;22.64;46.42
50057;BME280;36875;49.468;11.200;2023-06-26T05:17:13;97911.69;;;22.64;46.56
50057;BME280;36875;49.468;11.200;2023-06-26T05:19:38;97911.38;;;22.66;46.58
50057;BME280;36875;49.468;11.200;2023-06-26T05:22:05;97913.63;;;22.64;46.54
50057;BME280;36875;49.468;11.200;2023-06-26T05:24:35;97918.81;;;22.65;46.79
50057;BME280;36875;49.468;11.200;2023-06-26T05:27:01;97909.94;;;22.68;46.79
50057;BME280;36875;49.468;11.200;2023-06-26T05:29:27;97900.69;;;22.73;46.68
50057;BME280;36875;49.468;11.200;2023-06-26T05:31:54;97906.00;;;22.78;46.79
50057;BME280;36875;49.468;11.200;2023-06-26T05:34:22;97901.44;;;22.82;46.87
50057;BME280;36875;49.468;11.200;2023-06-26T05:36:48;97905.97;;;22.87;46.69
50057;BME280;36875;49.468;11.200;2023-06-26T05:39:16;97904.50;;;22.89;47.08
50057;BME280;36875;49.468;11.200;2023-06-26T05:41:44;97895.94;;;22.91;46.86
50057;BME280;36875;49.468;11.200;2023-06-26T05:44:10;97893.34;;;22.95;47.24
50057;BME280;36875;49.468;11.200;2023-06-26T05:46:35;97895.41;;;22.98;46.81
50057;BME280;36875;49.468;11.200;2023-06-26T05:49:01;97902.19;;;23.00;46.81
50057;BME280;36875;49.468;11.200;2023-06-26T05:51:27;97892.00;;;23.01;46.78
50057;BME280;36875;49.468;11.200;2023-06-26T05:53:53;97897.94;;;23.03;46.91
50057;BME280;36875;49.468;11.200;2023-06-26T05:56:19;97889.41;;;23.04;47.35
50057;BME280;36875;49.468;11.200;2023-06-26T05:58:47;97887.97;;;23.07;47.12
50057;BME280;36875;49.468;11.200;2023-06-26T06:01:12;97891.84;;;23.06;46.78
50057;BME280;36875;49.468;11.200;2023-06-26T06:03:39;97886.16;;;23.11;46.86
50057;BME280;36875;49.468;11.200;2023-06-26T06:06:04;97885.69;;;23.09;47.44
50057;BME280;36875;49.468;11.200;2023-06-26T06:08:30;97878.13;;;23.06;47.42
50057;BME280;36875;49.468;11.200;2023-06-26T06:10:55;97881.34;;;23.08;47.36
50057;BME280;36875;49.468;11.200;2023-06-26T06:13:21;97877.47;;;23.09;47.45
50057;BME280;36875;49.468;11.200;2023-06-26T06:15:48;97890.03;;;23.10;47.03
50057;BME280;36875;49.468;11.200;2023-06-26T06:18:14;97879.06;;;23.10;47.57
50057;BME280;36875;49.468;11.200;2023-06-26T06:20:39;97876.78;;;23.12;47.39
50057;BME280;36875;49.468;11.200;2023-06-26T06:23:05;97872.13;;;23.13;47.51
50057;BME280;36875;49.468;11.200;2023-06-26T06:25:31;97870.63;;;23.15;47.49
50057;BME280;36875;49.468;11.200;2023-06-26T06:27:57;97878.53;;;23.17;47.68
50057;BME280;36875;49.468;11.200;2023-06-26T06:30:22;97879.00;;;23.19;47.82
50057;BME280;36875;49.468;11.200;2023-06-26T06:32:49;97873.19;;;23.20;47.51
50057;BME280;36875;49.468;11.200;2023-06-26T06:35:17;97880.28;;;23.21;47.47
50057;BME280;36875;49.468;11.200;2023-06-26T06:37:43;97884.63;;;23.22;47.80
50057;BME280;36875;49.468;11.200;2023-06-26T06:40:10;97876.06;;;23.24;47.60
50057;BME280;36875;49.468;11.200;2023-06-26T06:42:35;97881.22;;;23.25;47.39
50057;BME280;36875;49.468;11.200;2023-06-26T06:45:02;97865.41;;;23.22;47.50
50057;BME280;36875;49.468;11.200;2023-06-26T06:47:27;97873.47;;;23.27;47.48
50057;BME280;36875;49.468;11.200;2023-06-26T06:49:54;97869.56;;;23.28;47.61
50057;BME280;36875;49.468;11.200;2023-06-26T06:52:20;97866.50;;;23.30;47.36
50057;BME280;36875;49.468;11.200;2023-06-26T06:54:52;97875.56;;;23.31;47.25
50057;BME280;36875;49.468;11.200;2023-06-26T06:57:18;97863.41;;;23.32;47.27
50057;BME280;36875;49.468;11.200;2023-06-26T06:59:43;97868.91;;;23.32;46.98
50057;BME280;36875;49.468;11.200;2023-06-26T07:02:09;97861.47;;;23.32;46.82
50057;BME280;36875;49.468;11.200;2023-06-26T07:04:34;97868.56;;;23.33;46.64
50057;BME280;36875;49.468;11.200;2023-06-26T07:07:01;97865.50;;;23.35;47.03
50057;BME280;36875;49.468;11.200;2023-06-26T07:09:27;97872.59;;;23.36;47.03
50057;BME280;36875;49.468;11.200;2023-06-26T07:11:52;97860.81;;;23.35;47.20
50057;BME280;36875;49.468;11.200;2023-06-26T07:14:18;97868.72;;;23.37;46.94
50057;BME280;36875;49.468;11.200;2023-06-26T07:16:43;97861.28;;;23.37;46.71
50057;BME280;36875;49.468;11.200;2023-06-26T07:19:09;97862.06;;;23.38;46.83
50057;BME280;36875;49.468;11.200;2023-06-26T07:21:34;97858.19;;;23.39;46.85
50057;BME280;36875;49.468;11.200;2023-06-26T07:24:01;97857.41;;;23.38;47.05
50057;BME280;36875;49.468;11.200;2023-06-26T07:26:26;97858.19;;;23.39;46.78
50057;BME280;36875;49.468;11.200;2023-06-26T07:28:52;97851.56;;;23.40;46.84
50057;BME280;36875;49.468;11.200;2023-06-26T07:31:18;97851.56;;;23.40;46.81
50057;BME280;36875;49.468;11.200;2023-06-26T07:33:44;97858.34;;;23.42;46.74
50057;BME280;36875;49.468;11.200;2023-06-26T07:36:09;97848.13;;;23.43;47.03
50057;BME280;36875;49.468;11.200;2023-06-26T07:38:35;97846.19;;;23.43;46.99
50057;BME280;36875;49.468;11.200;2023-06-26T07:41:01;97848.13;;;23.43;46.83
50057;BME280;36875;49.468;11.200;2023-06-26T07:43:27;97851.34;;;23.45;46.74
50057;BME280;36875;49.468;11.200;2023-06-26T07:45:52;97842.00;;;23.46;46.93
50057;BME280;36875;49.468;11.200;2023-06-26T07:48:18;97839.72;;;23.48;46.84
50057;BME280;36875;49.468;11.200;2023-06-26T07:50:44;97842.13;;;23.50;46.78
50057;BME280;36875;49.468;11.200;2023-06-26T07:53:09;97846.81;;;23.49;46.97
50057;BME280;36875;49.468;11.200;2023-06-26T07:55:35;97851.16;;;23.50;46.83
50057;BME280;36875;49.468;11.200;2023-06-26T07:58:02;97846.13;;;23.52;46.64
50057;BME280;36875;49.468;11.200;2023-06-26T08:00:27;97843.84;;;23.54;46.45
50057;BME280;36875;49.468;11.200;2023-06-26T08:02:53;97848.22;;;23.55;46.56
50057;BME280;36875;49.468;11.200;2023-06-26T08:05:18;97841.56;;;23.56;46.43
50057;BME280;36875;49.468;11.200;2023-06-26T08:07:44;97836.06;;;23.56;46.50
50057;BME280;36875;49.468;11.200;2023-06-26T08:10:09;97838.47;;;23.58;46.71
50057;BME280;36875;49.468;11.200;2023-06-26T08:12:35;97842.84;;;23.59;46.51
50057;BME280;36875;49.468;11.200;2023-06-26T08:15:03;97836.56;;;23.58;46.40
50057;BME280;36875;49.468;11.200;2023-06-26T08:17:30;97831.41;;;23.57;46.28
50057;BME280;36875;49.468;11.200;2023-06-26T08:19:55;97829.91;;;23.59;46.35
50057;BME280;36875;49.468;11.200;2023-06-26T08:22:21;97836.19;;;23.60;46.47
50057;BME280;36875;49.468;11.200;2023-06-26T08:24:46;97834.28;;;23.60;46.33
50057;BME280;36875;49.468;11.200;2023-06-26T08:27:12;97824.88;;;23.61;46.11
50057;BME280;36875;49.468;11.200;2023-06-26T08:29:37;97824.88;;;23.61;46.09
50057;BME280;36875;49.468;11.200;2023-06-26T08:32:05;97821.78;;;23.63;46.15
50057;BME280;36875;49.468;11.200;2023-06-26T08:34:30;97812.75;;;23.62;46.37
50057;BME280;36875;49.468;11.200;2023-06-26T08:36:56;97818.72;;;23.64;46.27
50057;BME280;36875;49.468;11.200;2023-06-26T08:39:21;97817.91;;;23.64;46.25
50057;BME280;36875;49.468;11.200;2023-06-26T08:41:47;97810.47;;;23.64;46.15
50057;BME280;36875;49.468;11.200;2023-06-26T08:44:12;97820.34;;;23.65;46.44
50057;BME280;36875;49.468;11.200;2023-06-26T08:46:38;97803.34;;;23.63;46.10
50057;BME280;36875;49.468;11.200;2023-06-26T08:49:14;97809.34;;;23.65;46.16
50057;BME280;36875;49.468;11.200;2023-06-26T08:51:44;97814.84;;;23.65;46.05
50057;BME280;36875;49.468;11.200;2023-06-26T08:54:11;97820.78;;;23.67;45.97
50057;BME280;36875;49.468;11.200;2023-06-26T08:56:42;97818.06;;;23.67;45.99
50057;BME280;36875;49.468;11.200;2023-06-26T08:59:09;97825.47;;;23.67;46.28
50057;BME280;36875;49.468;11.200;2023-06-26T09:01:40;97811.72;;;23.67;46.33
50057;BME280;36875;49.468;11.200;2023-06-26T09:04:07;97811.72;;;23.67;46.39
50057;BME280;36875;49.468;11.200;2023-06-26T09:06:33;97812.56;;;23.67;46.23
50057;BME280;36875;49.468;11.200;2023-06-26T09:08:58;97816.09;;;23.68;46.17
50057;BME280;36875;49.468;11.200;2023-06-26T09:11:24;97809.81;;;23.67;46.14
50057;BME280;36875;49.468;11.200;2023-06-26T09:13:50;97814.16;;;23.68;46.17
50057;BME280;36875;49.468;11.200;2023-06-26T09:16:16;97806.69;;;23.69;46.01
50057;BME280;36875;49.468;11.200;2023-06-26T09:18:41;97802.03;;;23.70;46.21
50057;BME280;36875;49.468;11.200;2023-06-26T09:21:11;97802.03;;;23.70;46.19
50057;BME280;36875;49.468;11.200;2023-06-26T09:23:39;97802.81;;;23.70;45.95
50057;BME280;36875;49.468;11.200;2023-06-26T09:26:05;97803.63;;;23.71;45.90
50057;BME280;36875;49.468;11.200;2023-06-26T09:28:31;97800.06;;;23.70;46.07
50057;BME280;36875;49.468;11.200;2023-06-26T09:31:00;97802.03;;;23.70;46.06
50057;BME280;36875;49.468;11.200;2023-06-26T09:33:32;97800.88;;;23.71;46.22
50057;BME280;36875;49.468;11.200;2023-06-26T09:35:58;97797.31;;;23.70;46.10
50057;BME280;36875;49.468;11.200;2023-06-26T09:38:24;97805.25;;;23.72;46.44
50057;BME280;36875;49.468;11.200;2023-06-26T09:40:50;97800.19;;;23.74;46.05
50057;BME280;36875;49.468;11.200;2023-06-26T09:43:16;97794.38;;;23.75;46.13
50057;BME280;36875;49.468;11.200;2023-06-26T09:45:44;97797.13;;;23.75;45.93
50057;BME280;36875;49.468;11.200;2023-06-26T09:48:09;97793.22;;;23.76;46.23
50057;BME280;36875;49.468;11.200;2023-06-26T09:50:37;97793.56;;;23.75;46.19
50057;BME280;36875;49.468;11.200;2023-06-26T09:53:09;97789.66;;;23.76;45.89
50057;BME280;36875;49.468;11.200;2023-06-26T09:55:37;97786.47;;;23.74;46.08
50057;BME280;36875;49.468;11.200;2023-06-26T09:58:03;97781.63;;;23.71;45.94
50057;BME280;36875;49.468;11.200;2023-06-26T10:00:29;97770.44;;;23.76;46.16
50057;BME280;36875;49.468;11.200;2023-06-26T10:02:55;97779.88;;;23.87;45.98
50057;BME280;36875;49.468;11.200;2023-06-26T10:05:20;97777.84;;;23.84;46.05
50057;BME280;36875;49.468;11.200;2023-06-26T10:07:46;97774.25;;;23.83;46.09
50057;BME280;36875;49.468;11.200;2023-06-26T10:10:13;97773.47;;;23.83;45.78
50057;BME280;36875;49.468;11.200;2023-06-26T10:12:47;97774.97;;;23.80;45.92
50057;BME280;36875;49.468;11.200;2023-06-26T10:15:13;97769.31;;;23.77;45.87
50057;BME280;36875;49.468;11.200;2023-06-26T10:17:43;97778.50;;;23.81;45.95
50057;BME280;36875;49.468;11.200;2023-06-26T10:20:09;97773.00;;;23.81;46.16
50057;BME280;36875;49.468;11.200;2023-06-26T10:22:39;97781.72;;;23.83;46.31
50057;BME280;36875;49.468;11.200;2023-06-26T10:25:06;97777.84;;;23.84;46.08
50057;BME280;36875;49.468;11.200;2023-06-26T10:27:36;97767.63;;;23.84;46.41
50057;BME280;36875;49.468;11.200;2023-06-26T10:30:09;97772.78;;;23.86;46.25
50057;BME280;36875;49.468;11.200;2023-06-26T10:32:37;97767.31;;;23.86;46.23
50057;BME280;36875;49.468;11.200;2023-06-26T10:35:05;97761.81;;;23.86;46.10
50057;BME280;36875;49.468;11.200;2023-06-26T10:37:40;97768.88;;;23.87;46.15
50057;BME280;36875;49.468;11.200;2023-06-26T10:40:07;97767.31;;;23.86;46.05
50057;BME280;36875;49.468;11.200;2023-06-26T10:42:35;97768.09;;;23.86;46.15
50057;BME280;36875;49.468;11.200;2023-06-26T10:45:10;97768.88;;;23.87;45.99
50057;BME280;36875;49.468;11.200;2023-06-26T10:47:40;97768.09;;;23.86;45.95
50057;BME280;36875;49.468;11.200;2023-06-26T10:50:19;97763.41;;;23.87;46.13
50057;BME280;36875;49.468;11.200;2023-06-26T10:52:45;97763.06;;;23.89;45.89
50057;BME280;36875;49.468;11.200;2023-06-26T10:55:11;97763.06;;;23.89;45.86
50057;BME280;36875;49.468;11.200;2023-06-26T10:57:36;97758.72;;;23.88;46.00
50057;BME280;36875;49.468;11.200;2023-06-26T11:00:14;97753.22;;;23.88;45.72
50057;BME280;36875;49.468;11.200;2023-06-26T11:02:49;97770.50;;;23.88;45.56
50057;BME280;36875;49.468;11.200;2023-06-26T11:05:24;97763.41;;;23.87;45.65
50057;BME280;36875;49.468;11.200;2023-06-26T11:08:06;97759.06;;;23.86;46.08
50057;BME280;36875;49.468;11.200;2023-06-26T11:10:48;97755.16;;;23.87;45.59
50057;BME280;36875;49.468;11.200;2023-06-26T11:13:17;97763.28;;;23.83;45.91
50057;BME280;36875;49.468;11.200;2023-06-26T11:15:44;97763.84;;;23.89;46.06
50057;BME280;36875;49.468;11.200;2023-06-26T11:18:10;97768.22;;;23.90;45.74
50057;BME280;36875;49.468;11.200;2023-06-26T11:20:37;97761.09;;;23.89;45.67
50057;BME280;36875;49.468;11.200;2023-06-26T11:23:03;97755.59;;;23.89;45.76
50057;BME280;36875;49.468;11.200;2023-06-26T11:25:34;97755.84;;;23.84;45.85
50057;BME280;36875;49.468;11.200;2023-06-26T11:28:00;97764.69;;;23.90;45.46
50057;BME280;36875;49.468;11.200;2023-06-26T11:30:26;97761.94;;;23.90;45.61
50057;BME280;36875;49.468;11.200;2023-06-26T11:33:02;97750.09;;;23.89;45.80
50057;BME280;36875;49.468;11.200;2023-06-26T11:35:28;97747.03;;;23.91;45.59
50057;BME280;36875;49.468;11.200;2023-06-26T11:37:56;97747.03;;;23.91;45.51
50057;BME280;36875;49.468;11.200;2023-06-26T11:40:23;97753.31;;;23.91;45.38
50057;BME280;36875;49.468;11.200;2023-06-26T11:42:52;97763.50;;;23.91;45.62
50057;BME280;36875;49.468;11.200;2023-06-26T11:45:19;97761.56;;;23.91;45.50
50057;BME280;36875;49.468;11.200;2023-06-26T11:47:44;97763.50;;;23.91;45.71
50057;BME280;36875;49.468;11.200;2023-06-26T11:50:16;97758.03;;;23.91;45.73
50057;BME280;36875;49.468;11.200;2023-06-26T11:52:42;97741.53;;;23.91;45.70
50057;BME280;36875;49.468;11.200;2023-06-26T11:55:09;97743.47;;;23.90;45.39
50057;BME280;36875;49.468;11.200;2023-06-26T11:57:36;97742.31;;;23.91;45.49
50057;BME280;36875;49.468;11.200;2023-06-26T12:00:11;97740.75;;;23.90;45.52
50057;BME280;36875;49.468;11.200;2023-06-26T12:02:36;97743.47;;;23.90;45.32
50057;BME280;36875;49.468;11.200;2023-06-26T12:05:02;97758.03;;;23.91;45.32
50057;BME280;36875;49.468;11.200;2023-06-26T12:07:29;97753.31;;;23.91;45.14
50057;BME280;36875;49.468;11.200;2023-06-26T12:09:56;97753.31;;;23.91;45.07
50057;BME280;36875;49.468;11.200;2023-06-26T12:12:24;97742.31;;;23.91;45.51
50057;BME280;36875;49.468;11.200;2023-06-26T12:14:51;97736.81;;;23.91;45.51
50057;BME280;36875;49.468;11.200;2023-06-26T12:17:17;97740.75;;;23.90;45.46
50057;BME280;36875;49.468;11.200;2023-06-26T12:19:44;97733.28;;;23.91;45.35
50057;BME280;36875;49.468;11.200;2023-06-26T12:22:10;97729.75;;;23.90;45.64
50057;BME280;36875;49.468;11.200;2023-06-26T12:24:38;97736.81;;;23.91;45.38
50057;BME280;36875;49.468;11.200;2023-06-26T12:27:08;97743.47;;;23.90;45.39
50057;BME280;36875;49.468;11.200;2023-06-26T12:29:35;97739.94;;;23.90;45.46
50057;BME280;36875;49.468;11.200;2023-06-26T12:32:01;97725.63;;;23.84;45.08
50057;BME280;36875;49.468;11.200;2023-06-26T12:34:28;97734.44;;;23.90;45.65
50057;BME280;36875;49.468;11.200;2023-06-26T12:37:00;97729.75;;;23.90;45.41
50057;BME280;36875;49.468;11.200;2023-06-26T12:39:25;97740.75;;;23.90;45.16
50057;BME280;36875;49.468;11.200;2023-06-26T12:41:57;97728.13;;;23.89;44.93
50057;BME280;36875;49.468;11.200;2023-06-26T12:44:26;97734.44;;;23.90;45.26
50057;BME280;36875;49.468;11.200;2023-06-26T12:46:56;97728.00;;;23.85;44.90
50057;BME280;36875;49.468;11.200;2023-06-26T12:49:29;97725.25;;;23.85;45.29